Time;durP1;ratioP1;P1;durP2;ratioP2;P2;SDS_P1;SDS_P2;PMS_P1;PMS_P2;Temp;Humidity;BMP_temperature;BMP_pressure;BME280_temperature;BME280_humidity;BME280_pressure;Samples;Min_cycle;Max_cycle;Signal;HPM_P1;HPM_P2
2022/02/24 00:00:21;;;;;;;7.30;3.50;;;;;;;3.26;70.23;101288.19;5031274;28;20505;-21
2022/02/24 00:02:47;;;;;;;4.97;3.47;;;;;;;3.25;70.28;101281.22;5030322;28;20067;-20
2022/02/24 00:05:13;;;;;;;5.68;3.47;;;;;;;3.23;70.20;101288.13;5027638;28;20045;-21
2022/02/24 00:07:39;;;;;;;5.20;3.20;;;;;;;3.19;70.17;101281.91;5042476;28;20032;-20
2022/02/24 00:10:08;;;;;;;5.15;3.15;;;;;;;3.15;70.28;101278.31;5045131;28;20104;-20
2022/02/24 00:12:34;;;;;;;5.53;3.83;;;;;;;3.13;70.43;101285.19;5038862;28;20024;-21
2022/02/24 00:14:59;;;;;;;5.82;3.90;;;;;;;3.09;70.60;101270.31;5040786;28;20040;-21
2022/02/24 00:17:25;;;;;;;7.70;3.65;;;;;;;3.08;70.25;101278.97;5040405;28;20033;-20
2022/02/24 00:19:50;;;;;;;6.80;3.72;;;;;;;3.04;70.38;101277.09;5037522;28;20021;-20
2022/02/24 00:22:16;;;;;;;4.53;4.05;;;;;;;3.01;70.52;101267.47;5042056;28;20033;-21
2022/02/24 00:24:41;;;;;;;5.25;3.47;;;;;;;3.01;70.38;101267.47;5042186;28;20029;-20
2022/02/24 00:27:06;;;;;;;8.07;3.40;;;;;;;2.98;70.68;101261.25;5046394;28;20494;-20
2022/02/24 00:29:32;;;;;;;5.10;4.05;;;;;;;2.94;70.83;101266.38;5040390;28;20022;-21
2022/02/24 00:31:57;;;;;;;5.53;3.88;;;;;;;2.94;70.53;101255.94;5044782;28;20400;-20
2022/02/24 00:34:23;;;;;;;6.38;4.47;;;;;;;2.91;70.74;101242.84;5047324;28;20478;-20
2022/02/24 00:36:52;;;;;;;5.60;3.78;;;;;;;2.89;70.75;101236.69;5036443;28;20564;-23
2022/02/24 00:39:18;;;;;;;6.45;4.00;;;;;;;2.87;70.39;101235.75;5039316;28;20030;-20
2022/02/24 00:41:43;;;;;;;7.43;4.13;;;;;;;2.82;70.77;101224.31;5032329;28;20529;-20
2022/02/24 00:44:09;;;;;;;7.40;4.13;;;;;;;2.82;70.65;101224.31;5043241;28;20030;-21
2022/02/24 00:46:34;;;;;;;5.05;3.78;;;;;;;2.79;70.64;101218.97;5040832;28;20025;-20
2022/02/24 00:48:59;;;;;;;5.72;3.70;;;;;;;2.78;71.05;101222.44;5046265;28;20029;-20
2022/02/24 00:51:25;;;;;;;8.27;3.70;;;;;;;2.76;70.85;101219.78;5040175;28;20458;-23
2022/02/24 00:53:51;;;;;;;5.07;4.18;;;;;;;2.75;70.76;101224.94;5033264;28;20029;-20
2022/02/24 00:56:16;;;;;;;6.75;3.63;;;;;;;2.73;70.81;101218.81;5044403;28;20221;-20
2022/02/24 00:58:41;;;;;;;6.50;4.22;;;;;;;2.71;70.87;101228.28;5036023;28;20038;-20
2022/02/24 01:01:07;;;;;;;6.18;3.40;;;;;;;2.68;71.11;101222.16;5041719;28;20071;-20
2022/02/24 01:03:32;;;;;;;6.65;4.13;;;;;;;2.67;70.86;101219.50;5029838;28;20052;-24
2022/02/24 01:06:00;;;;;;;3.88;3.50;;;;;;;2.65;70.79;101211.63;5039176;28;20021;-21
2022/02/24 01:08:26;;;;;;;4.25;3.13;;;;;;;2.63;70.99;101202.00;5039791;28;20475;-20
2022/02/24 01:10:51;;;;;;;4.82;3.95;;;;;;;2.62;70.89;101210.63;5038508;28;20026;-24
2022/02/24 01:13:16;;;;;;;5.43;3.30;;;;;;;2.60;70.93;101207.97;5039826;28;20084;-20
2022/02/24 01:15:42;;;;;;;5.40;3.97;;;;;;;2.60;70.93;101210.56;5022214;28;20069;-21
2022/02/24 01:18:11;;;;;;;7.60;4.15;;;;;;;2.57;71.14;101205.28;5039405;28;20029;-21
2022/02/24 01:20:37;;;;;;;8.35;4.03;;;;;;;2.57;70.95;101197.47;5038307;28;20448;-22
2022/02/24 01:23:03;;;;;;;5.88;3.58;;;;;;;2.56;70.98;101200.91;5046827;28;20898;-20
2022/02/24 01:25:28;;;;;;;5.78;3.78;;;;;;;2.54;71.00;101192.16;5041833;28;20021;-21
2022/02/24 01:27:53;;;;;;;6.07;4.05;;;;;;;2.48;71.04;101172.03;5038943;28;20538;-20
2022/02/24 01:30:22;;;;;;;5.35;4.05;;;;;;;2.50;71.06;101169.47;5027543;28;20031;-20
2022/02/24 01:32:47;;;;;;;3.70;3.13;;;;;;;2.47;71.06;101164.16;5030964;28;20494;-20
2022/02/24 01:35:13;;;;;;;7.47;4.25;;;;;;;2.48;71.04;101163.31;5034837;28;20189;-20
2022/02/24 01:37:38;;;;;;;6.20;3.58;;;;;;;2.45;70.91;101156.28;5041521;28;20491;-20
2022/02/24 01:40:05;;;;;;;5.45;3.58;;;;;;;2.43;71.08;101151.03;5033427;28;20113;-20
2022/02/24 01:42:30;;;;;;;6.78;3.67;;;;;;;2.41;70.98;101157.91;5032215;28;20049;-20
2022/02/24 01:44:56;;;;;;;5.93;3.55;;;;;;;2.40;70.94;101150.94;5040571;28;20021;-20
2022/02/24 01:47:21;;;;;;;5.13;3.25;;;;;;;2.38;71.23;101141.31;5045924;28;20038;-22
2022/02/24 01:49:47;;;;;;;7.07;3.47;;;;;;;2.36;71.06;101136.03;5045691;28;20147;-20
2022/02/24 01:52:12;;;;;;;4.18;3.50;;;;;;;2.35;71.39;101136.88;5045494;28;20391;-20
2022/02/24 01:54:39;;;;;;;7.80;3.63;;;;;;;2.34;70.94;101142.03;5042260;28;20063;-20
2022/02/24 01:57:05;;;;;;;6.22;3.83;;;;;;;2.31;71.25;101124.63;5037624;28;20031;-20
2022/02/24 01:59:30;;;;;;;6.55;3.50;;;;;;;2.29;71.24;101129.75;5038399;28;20025;-20
2022/02/24 02:01:56;;;;;;;6.25;4.07;;;;;;;2.28;71.03;101119.31;5037108;28;20490;-20
2022/02/24 02:04:22;;;;;;;6.18;3.90;;;;;;;2.26;71.19;101119.25;5036395;28;20040;-21
2022/02/24 02:06:47;;;;;;;5.47;3.58;;;;;;;2.23;71.40;101103.53;5039086;28;20032;-20
2022/02/24 02:09:13;;;;;;;6.28;3.70;;;;;;;2.23;71.19;101103.53;5041498;28;20029;-20
2022/02/24 02:11:38;;;;;;;7.90;3.70;;;;;;;2.23;71.25;101092.25;5036729;28;20073;-20
2022/02/24 02:14:04;;;;;;;4.80;3.53;;;;;;;2.22;71.41;101087.84;5041000;28;20029;-20
2022/02/24 02:16:29;;;;;;;3.88;3.50;;;;;;;2.18;71.56;101086.88;5036268;28;20025;-20
2022/02/24 02:18:55;;;;;;;7.15;3.45;;;;;;;2.17;71.23;101080.78;5035940;28;20041;-20
2022/02/24 02:21:20;;;;;;;6.25;3.55;;;;;;;2.16;71.35;101071.22;5031754;28;20036;-23
2022/02/24 02:23:46;;;;;;;6.10;3.50;;;;;;;2.15;71.09;101064.25;5035899;28;20021;-20
2022/02/24 02:26:11;;;;;;;8.15;5.13;;;;;;;2.15;71.17;101058.16;5040859;28;20123;-20
2022/02/24 02:28:36;;;;;;;6.82;3.28;;;;;;;2.12;71.16;101051.13;5036931;28;20467;-21
2022/02/24 02:31:02;;;;;;;4.47;3.33;;;;;;;2.12;71.24;101047.66;5038811;28;20479;-20
2022/02/24 02:33:27;;;;;;;5.85;3.60;;;;;;;2.09;71.30;101038.03;5043302;28;20028;-21
2022/02/24 02:35:53;;;;;;;6.47;3.35;;;;;;;2.09;71.13;101038.03;5045625;28;20455;-20
2022/02/24 02:38:18;;;;;;;6.78;4.38;;;;;;;2.05;71.27;101029.25;5038320;28;20390;-20
2022/02/24 02:40:43;;;;;;;4.82;3.40;;;;;;;2.06;71.25;101032.72;5040118;28;20033;-20
2022/02/24 02:43:10;;;;;;;5.50;4.05;;;;;;;2.05;71.32;101021.44;5040984;28;20025;-20
2022/02/24 02:45:37;;;;;;;5.47;3.58;;;;;;;2.02;71.07;101020.44;5036533;28;20501;-20
2022/02/24 02:48:03;;;;;;;5.07;3.58;;;;;;;2.02;71.41;101015.25;5033698;28;20112;-20
2022/02/24 02:50:29;;;;;;;4.13;3.45;;;;;;;2.02;71.09;101010.03;5034627;28;20406;-20
2022/02/24 02:52:55;;;;;;;4.53;3.58;;;;;;;2.02;71.43;101023.06;5037924;28;20029;-20
2022/02/24 02:55:20;;;;;;;4.38;3.63;;;;;;;2.00;71.42;101017.78;5035176;28;20044;-21
2022/02/24 02:57:46;;;;;;;5.00;3.50;;;;;;;1.98;71.35;101008.19;5039057;28;20395;-20
2022/02/24 03:00:14;;;;;;;4.10;3.30;;;;;;;1.97;71.11;101006.44;5035024;28;20022;-20
2022/02/24 03:02:40;;;;;;;7.93;3.75;;;;;;;1.96;71.22;101009.88;5032919;28;20032;-22
2022/02/24 03:05:06;;;;;;;8.27;3.60;;;;;;;1.95;71.08;101002.88;5037672;28;20018;-20
2022/02/24 03:07:31;;;;;;;4.15;3.25;;;;;;;1.94;71.40;101006.31;5036511;28;20113;-21
2022/02/24 03:09:57;;;;;;;4.75;3.05;;;;;;;1.91;71.40;100996.69;5036219;28;20116;-20
2022/02/24 03:12:22;;;;;;;4.80;3.53;;;;;;;1.91;71.26;100997.56;5029276;28;20017;-21
2022/02/24 03:14:47;;;;;;;5.13;3.70;;;;;;;1.89;71.19;100994.06;5040525;28;20471;-21
2022/02/24 03:17:13;;;;;;;5.47;4.25;;;;;;;1.88;71.11;100992.28;5035591;28;20499;-20
2022/02/24 03:19:39;;;;;;;5.28;4.00;;;;;;;1.86;71.57;100987.84;5037357;28;20034;-22
2022/02/24 03:22:12;;;;;;;3.50;3.05;;;;;;;1.85;71.21;100987.00;5031512;28;20025;-20
2022/02/24 03:24:38;;;;;;;4.75;3.78;;;;;;;1.83;71.15;100974.78;5028600;28;20029;-20
2022/02/24 03:27:03;;;;;;;4.88;2.95;;;;;;;1.83;71.60;100970.44;5033870;28;20098;-21
2022/02/24 03:29:29;;;;;;;4.50;3.72;;;;;;;1.83;71.26;100972.16;5029145;28;20040;-21
2022/02/24 03:31:54;;;;;;;6.35;3.65;;;;;;;1.82;71.36;100972.97;5027735;28;20039;-20
2022/02/24 03:34:20;;;;;;;4.60;3.78;;;;;;;1.79;71.38;100971.19;5032948;28;20580;-22
2022/02/24 03:36:46;;;;;;;4.40;3.97;;;;;;;1.77;71.23;100972.88;5035920;28;20105;-20
2022/02/24 03:39:11;;;;;;;5.07;3.80;;;;;;;1.76;71.32;100965.88;5041820;28;20071;-20
2022/02/24 03:41:36;;;;;;;6.72;3.58;;;;;;;1.76;71.26;100971.06;5033021;28;20029;-20
2022/02/24 03:44:02;;;;;;;5.18;3.70;;;;;;;1.74;71.45;100962.34;5036990;28;20459;-23
2022/02/24 03:46:27;;;;;;;5.97;3.63;;;;;;;1.73;71.09;100958.00;5038647;28;20029;-20
2022/02/24 03:48:52;;;;;;;5.70;4.20;;;;;;;1.72;71.37;100958.81;5040414;28;20025;-20
2022/02/24 03:51:18;;;;;;;4.53;3.78;;;;;;;1.71;71.28;100964.84;5039224;28;20178;-21
2022/02/24 03:53:43;;;;;;;6.15;3.72;;;;;;;1.70;71.31;100957.91;5039605;28;20063;-20
2022/02/24 03:56:09;;;;;;;7.35;4.10;;;;;;;1.69;71.30;100954.41;5038296;28;20037;-21
2022/02/24 03:58:35;;;;;;;9.27;4.72;;;;;;;1.66;71.17;100949.09;5036206;28;20735;-20
2022/02/24 04:01:00;;;;;;;7.80;4.68;;;;;;;1.65;71.55;100958.63;5027619;28;20483;-21
2022/02/24 04:03:25;;;;;;;7.38;4.85;;;;;;;1.66;71.10;100949.09;5035368;28;20025;-20
2022/02/24 04:05:51;;;;;;;6.00;4.13;;;;;;;1.63;71.25;100947.28;5036540;28;20051;-20
2022/02/24 04:08:17;;;;;;;4.93;3.97;;;;;;;1.64;71.54;100946.44;5035136;28;20045;-20
2022/02/24 04:10:42;;;;;;;6.47;3.95;;;;;;;1.62;71.23;100942.91;5034878;28;20033;-20
2022/02/24 04:13:07;;;;;;;4.25;3.65;;;;;;;1.61;71.32;100940.28;5034419;28;20063;-21
2022/02/24 04:15:33;;;;;;;5.00;3.95;;;;;;;1.61;71.31;100928.16;5037766;28;20572;-20
2022/02/24 04:17:58;;;;;;;4.60;3.65;;;;;;;1.60;71.65;100922.91;5016574;28;20079;-22
2022/02/24 04:20:23;;;;;;;6.22;3.58;;;;;;;1.59;71.47;100919.41;5039274;28;20068;-20
2022/02/24 04:22:49;;;;;;;5.05;4.40;;;;;;;1.61;71.22;100911.66;5033497;28;20036;-21
2022/02/24 04:25:15;;;;;;;4.45;3.72;;;;;;;1.59;71.25;100906.41;5034315;28;20094;-20
2022/02/24 04:27:47;;;;;;;5.70;3.80;;;;;;;1.58;71.37;100903.75;5035780;28;20029;-20
2022/02/24 04:30:13;;;;;;;7.80;4.25;;;;;;;1.58;71.44;100904.66;5033513;28;20509;-20
2022/02/24 04:32:40;;;;;;;4.05;3.65;;;;;;;1.55;71.68;100899.34;5033944;28;20039;-21
2022/02/24 04:35:05;;;;;;;6.40;3.78;;;;;;;1.58;71.79;100899.47;5034717;28;20025;-20
2022/02/24 04:37:31;;;;;;;4.45;3.45;;;;;;;1.57;71.57;100909.81;5034796;28;20445;-20
2022/02/24 04:39:56;;;;;;;4.85;3.90;;;;;;;1.57;71.69;100908.06;5035906;28;20378;-21
2022/02/24 04:42:21;;;;;;;7.43;4.40;;;;;;;1.57;71.59;100912.41;5031870;28;20364;-21
2022/02/24 04:44:47;;;;;;;5.57;3.50;;;;;;;1.58;71.55;100904.66;5030951;28;20035;-21
2022/02/24 04:47:12;;;;;;;5.05;3.53;;;;;;;1.57;71.38;100900.28;5036804;28;20116;-23
2022/02/24 04:49:37;;;;;;;4.30;3.83;;;;;;;1.58;71.46;100899.47;5035707;28;20026;-22
2022/02/24 04:52:03;;;;;;;6.68;3.70;;;;;;;1.59;71.63;100895.13;5036823;28;20017;-21
2022/02/24 04:54:28;;;;;;;4.35;3.20;;;;;;;1.59;71.61;100877.81;5030222;28;20400;-20
2022/02/24 04:56:53;;;;;;;6.35;3.15;;;;;;;1.58;71.83;100876.06;5040382;28;20022;-21
2022/02/24 04:59:19;;;;;;;6.07;3.30;;;;;;;1.60;71.80;100871.78;5036399;28;20060;-20
2022/02/24 05:01:44;;;;;;;6.18;3.92;;;;;;;1.61;71.74;100883.06;5037113;28;20028;-22
2022/02/24 05:04:09;;;;;;;6.05;3.13;;;;;;;1.59;71.63;100870.03;5032632;28;20069;-20
2022/02/24 05:06:35;;;;;;;5.68;3.40;;;;;;;1.62;71.62;100875.31;5037321;28;20033;-21
2022/02/24 05:09:00;;;;;;;4.68;3.15;;;;;;;1.66;71.80;100868.47;5035781;28;20035;-21
2022/02/24 05:11:25;;;;;;;3.92;2.95;;;;;;;1.66;71.79;100871.06;5033839;28;20500;-20
2022/02/24 05:13:51;;;;;;;4.30;3.53;;;;;;;1.67;71.74;100873.72;5040210;28;20454;-21
2022/02/24 05:16:16;;;;;;;4.90;2.75;;;;;;;1.69;71.63;100859.88;5037770;28;20021;-20
2022/02/24 05:18:41;;;;;;;3.97;3.42;;;;;;;1.69;71.43;100859.88;5030009;28;20463;-20
2022/02/24 05:21:06;;;;;;;5.07;3.67;;;;;;;1.68;71.57;100856.41;5037075;28;20021;-20
2022/02/24 05:23:32;;;;;;;6.50;3.72;;;;;;;1.71;71.42;100855.63;5035090;28;20032;-20
2022/02/24 05:25:57;;;;;;;4.85;3.55;;;;;;;1.73;71.42;100861.78;5032028;28;20056;-20
2022/02/24 05:28:23;;;;;;;4.68;3.60;;;;;;;1.73;71.28;100851.38;5043162;28;20036;-20
2022/02/24 05:30:48;;;;;;;4.13;3.25;;;;;;;1.75;71.56;100849.69;5031996;28;20116;-20
2022/02/24 05:33:15;;;;;;;4.90;3.10;;;;;;;1.76;71.87;100848.84;5034204;28;20376;-20
2022/02/24 05:35:40;;;;;;;5.32;3.35;;;;;;;1.77;71.57;100848.88;5035901;28;20041;-20
2022/02/24 05:38:06;;;;;;;3.70;3.10;;;;;;;1.80;71.30;100840.28;5036178;28;20033;-21
2022/02/24 05:40:31;;;;;;;2.97;2.40;;;;;;;1.81;71.21;100839.47;5035284;28;20036;-20
2022/02/24 05:42:58;;;;;;;3.90;2.80;;;;;;;1.83;71.63;100845.59;5033895;28;20025;-20
2022/02/24 05:45:23;;;;;;;5.00;3.28;;;;;;;1.84;71.49;100833.47;5031963;28;20537;-21
2022/02/24 05:47:49;;;;;;;4.72;3.08;;;;;;;1.83;71.75;100822.16;5035978;28;20037;-20
2022/02/24 05:50:14;;;;;;;3.92;2.95;;;;;;;1.86;71.61;100826.56;5036056;28;20075;-21
2022/02/24 05:52:40;;;;;;;4.05;2.88;;;;;;;1.88;71.51;100831.00;5043173;28;20033;-20
2022/02/24 05:55:06;;;;;;;4.20;3.13;;;;;;;1.88;71.72;100831.00;5044748;28;20043;-20
2022/02/24 05:57:31;;;;;;;4.15;3.13;;;;;;;1.90;71.50;100829.31;5045008;28;20048;-20
2022/02/24 05:59:57;;;;;;;2.90;2.70;;;;;;;1.94;71.83;100829.41;5042610;28;20107;-22
2022/02/24 06:02:22;;;;;;;5.07;3.00;;;;;;;1.94;71.70;100832.91;5035349;28;20394;-20
2022/02/24 06:04:47;;;;;;;3.72;2.80;;;;;;;1.94;71.35;100829.41;5036713;28;20100;-20
2022/02/24 06:07:13;;;;;;;4.50;2.63;;;;;;;1.97;71.27;100829.50;5039780;28;20025;-21
2022/02/24 06:09:38;;;;;;;4.85;2.60;;;;;;;1.99;71.79;100833.03;5032462;28;20037;-20
2022/02/24 06:12:04;;;;;;;4.35;3.05;;;;;;;2.00;71.52;100829.59;5032770;28;20022;-21
2022/02/24 06:14:29;;;;;;;4.05;3.00;;;;;;;2.02;71.33;100827.91;5031268;28;20037;-20
2022/02/24 06:16:55;;;;;;;3.33;3.03;;;;;;;2.03;71.67;100827.97;5039130;28;20017;-20
2022/02/24 06:19:20;;;;;;;3.55;2.83;;;;;;;2.02;71.62;100827.91;5035997;28;20471;-22
2022/02/24 06:21:48;;;;;;;3.75;2.67;;;;;;;2.05;71.55;100818.50;5039625;28;20174;-20
2022/02/24 06:24:13;;;;;;;3.47;2.90;;;;;;;2.08;71.54;100817.69;5036758;28;20116;-20
2022/02/24 06:26:39;;;;;;;4.50;2.70;;;;;;;2.08;71.43;100811.59;5040436;28;20460;-20
2022/02/24 06:29:04;;;;;;;3.17;2.67;;;;;;;2.09;71.19;100809.03;5033726;28;20025;-20
2022/02/24 06:31:34;;;;;;;4.60;3.65;;;;;;;2.11;71.44;100812.56;5040053;28;20040;-21
2022/02/24 06:34:00;;;;;;;3.45;3.08;;;;;;;2.11;71.52;100802.16;5036868;28;20112;-20
2022/02/24 06:36:25;;;;;;;4.95;3.20;;;;;;;2.09;71.42;100798.63;5036748;28;20025;-20
2022/02/24 06:38:52;;;;;;;6.68;3.63;;;;;;;2.12;71.34;100790.91;5034978;28;20355;-20
2022/02/24 06:41:19;;;;;;;4.93;3.03;;;;;;;2.13;71.42;100792.66;5040335;28;20485;-20
2022/02/24 06:43:44;;;;;;;4.18;2.95;;;;;;;2.16;71.43;100792.75;5043167;28;20191;-20
2022/02/24 06:46:09;;;;;;;5.20;3.17;;;;;;;2.17;71.06;100788.44;5034845;28;20401;-20
2022/02/24 06:48:35;;;;;;;3.80;2.83;;;;;;;2.18;71.54;100785.88;5035858;28;20024;-20
2022/02/24 06:51:00;;;;;;;4.38;3.40;;;;;;;2.18;71.31;100782.38;5034499;28;20021;-20
2022/02/24 06:53:25;;;;;;;4.25;3.13;;;;;;;2.20;71.38;100782.44;5045580;28;20039;-20
2022/02/24 06:55:51;;;;;;;4.13;3.50;;;;;;;2.20;71.21;100782.44;5040170;28;20033;-22
2022/02/24 06:58:16;;;;;;;2.83;2.63;;;;;;;2.23;71.33;100790.34;5036168;28;20364;-20
2022/02/24 07:00:41;;;;;;;3.50;2.90;;;;;;;2.22;71.22;100794.66;5037111;28;20075;-20
2022/02/24 07:03:07;;;;;;;3.30;2.85;;;;;;;2.23;71.46;100782.53;5040955;28;20021;-20
2022/02/24 07:05:32;;;;;;;5.63;2.58;;;;;;;2.26;71.50;100785.19;5039635;28;20039;-20
2022/02/24 07:07:58;;;;;;;4.10;3.08;;;;;;;2.29;71.96;100785.28;5034424;28;20025;-20
2022/02/24 07:10:23;;;;;;;5.68;3.03;;;;;;;2.26;71.79;100775.66;5034868;28;20026;-21
2022/02/24 07:12:48;;;;;;;5.00;3.42;;;;;;;2.31;72.11;100791.41;5035224;28;20270;-20
2022/02/24 07:15:14;;;;;;;4.60;3.42;;;;;;;2.33;72.42;100787.13;5037470;28;20105;-20
2022/02/24 07:17:44;;;;;;;4.97;3.08;;;;;;;2.37;72.99;100777.69;5038129;28;20032;-20
2022/02/24 07:20:11;;;;;;;4.90;3.10;;;;;;;2.39;73.03;100784.69;5040036;28;20049;-20
2022/02/24 07:22:37;;;;;;;4.88;2.92;;;;;;;2.43;73.24;100783.91;5040951;28;20064;-20
2022/02/24 07:25:03;;;;;;;5.45;2.97;;;;;;;2.45;72.63;100778.75;5040006;28;20107;-20
2022/02/24 07:27:28;;;;;;;5.00;3.05;;;;;;;2.48;72.65;100773.63;5039906;28;20454;-20
2022/02/24 07:29:54;;;;;;;4.15;2.90;;;;;;;2.52;72.74;100766.78;5045155;28;20017;-20
2022/02/24 07:32:19;;;;;;;4.60;3.45;;;;;;;2.54;72.50;100758.16;5040657;28;20025;-20
2022/02/24 07:34:45;;;;;;;3.42;3.03;;;;;;;2.60;72.67;100759.16;5037684;28;20032;-20
2022/02/24 07:37:11;;;;;;;8.30;3.30;;;;;;;2.63;72.67;100760.09;5041796;28;20017;-20
2022/02/24 07:39:37;;;;;;;3.28;2.97;;;;;;;2.66;72.40;100754.97;5039522;28;20502;-20
2022/02/24 07:42:02;;;;;;;5.60;3.20;;;;;;;2.70;72.24;100755.94;5040501;28;20032;-20
2022/02/24 07:44:28;;;;;;;3.92;3.10;;;;;;;2.75;73.06;100759.53;5039687;28;20029;-20
2022/02/24 07:46:53;;;;;;;5.60;3.60;;;;;;;2.80;73.14;100746.63;5045412;28;20524;-20
2022/02/24 07:49:22;;;;;;;7.45;3.95;;;;;;;2.84;73.27;100753.69;5038610;28;20433;-21
2022/02/24 07:51:51;;;;;;;5.72;3.25;;;;;;;2.89;73.52;100746.84;5038889;28;20093;-22
2022/02/24 07:54:20;;;;;;;5.38;3.42;;;;;;;2.93;73.48;100753.88;5042339;28;20063;-20
2022/02/24 07:56:46;;;;;;;4.13;3.25;;;;;;;2.98;73.76;100745.28;5034713;28;20017;-20
2022/02/24 07:59:13;;;;;;;5.13;3.40;;;;;;;3.01;73.97;100740.16;5043671;28;20033;-20
2022/02/24 08:01:38;;;;;;;7.10;3.63;;;;;;;3.06;73.92;100743.75;5038662;28;20032;-20
2022/02/24 08:04:03;;;;;;;3.50;3.20;;;;;;;3.09;73.71;100736.00;5039907;28;20054;-20
2022/02/24 08:06:29;;;;;;;6.88;3.78;;;;;;;3.15;73.80;100735.25;5037323;28;20017;-20
2022/02/24 08:08:54;;;;;;;4.30;3.40;;;;;;;3.18;74.00;100728.41;5040777;28;20033;-20
2022/02/24 08:11:19;;;;;;;6.30;3.70;;;;;;;3.24;74.06;100732.88;5038677;28;20390;-20
2022/02/24 08:13:45;;;;;;;5.78;3.35;;;;;;;3.26;74.02;100725.94;5039555;28;20092;-20
2022/02/24 08:16:10;;;;;;;8.23;4.38;;;;;;;3.30;73.86;100726.91;5043822;28;20114;-20
2022/02/24 08:18:36;;;;;;;5.28;3.13;;;;;;;3.35;73.55;100725.28;5040344;28;20106;-20
2022/02/24 08:21:01;;;;;;;5.63;3.17;;;;;;;3.38;73.78;100727.94;5035539;28;20029;-20
2022/02/24 08:23:26;;;;;;;5.30;3.60;;;;;;;3.44;73.96;100722.84;5040268;28;20010;-21
2022/02/24 08:25:52;;;;;;;4.75;3.88;;;;;;;3.46;73.96;100723.78;5039576;28;20024;-20
2022/02/24 08:28:17;;;;;;;6.00;4.13;;;;;;;3.51;73.97;100723.00;5038888;28;20021;-21
2022/02/24 08:30:42;;;;;;;5.18;3.80;;;;;;;3.55;73.25;100717.88;5036217;28;20033;-20
2022/02/24 08:33:08;;;;;;;7.97;3.70;;;;;;;3.56;74.01;100708.31;5040263;28;20013;-20
2022/02/24 08:35:34;;;;;;;5.72;4.32;;;;;;;3.63;73.69;100710.19;5035837;28;20045;-21
2022/02/24 08:38:00;;;;;;;5.35;3.88;;;;;;;3.66;73.55;100710.25;5042927;28;20036;-20
2022/02/24 08:40:26;;;;;;;5.00;3.75;;;;;;;3.69;73.72;100701.59;5042591;28;20107;-20
2022/02/24 08:42:51;;;;;;;5.95;3.80;;;;;;;3.71;74.07;100689.47;5040353;28;20096;-20
2022/02/24 08:45:18;;;;;;;7.85;4.25;;;;;;;3.75;74.13;100693.03;5041220;28;20463;-21
2022/02/24 08:47:43;;;;;;;6.32;3.70;;;;;;;3.79;74.01;100687.00;5040912;28;20029;-20
2022/02/24 08:50:11;;;;;;;5.85;3.90;;;;;;;3.83;73.96;100681.00;5037940;28;20032;-21
2022/02/24 08:52:36;;;;;;;8.85;4.55;;;;;;;3.88;73.57;100691.53;5039188;28;20017;-20
2022/02/24 08:55:02;;;;;;;5.07;3.30;;;;;;;3.91;73.45;100674.22;5037205;28;20028;-20
2022/02/24 08:57:28;;;;;;;6.55;3.80;;;;;;;3.94;73.38;100679.47;5033655;28;20474;-21
2022/02/24 08:59:53;;;;;;;5.05;3.20;;;;;;;3.98;72.99;100669.97;5042613;28;20100;-21
2022/02/24 09:02:19;;;;;;;5.28;3.47;;;;;;;3.97;73.49;100661.25;5035313;28;20017;-20
2022/02/24 09:04:44;;;;;;;7.15;3.58;;;;;;;4.04;73.19;100659.63;5037870;28;20056;-20
2022/02/24 09:07:09;;;;;;;6.18;3.85;;;;;;;4.07;73.67;100649.25;5035083;28;20026;-20
2022/02/24 09:09:35;;;;;;;6.90;3.72;;;;;;;4.11;73.25;100634.53;5045541;28;20056;-20
2022/02/24 09:12:01;;;;;;;3.97;3.58;;;;;;;4.13;73.52;100630.19;5042850;28;20021;-21
2022/02/24 09:14:27;;;;;;;6.22;4.00;;;;;;;4.18;73.59;100636.41;5035594;28;20029;-20
2022/02/24 09:16:52;;;;;;;5.65;3.45;;;;;;;4.22;73.21;100632.97;5036246;28;20029;-20
2022/02/24 09:19:18;;;;;;;5.32;3.28;;;;;;;4.24;73.33;100630.41;5034255;28;20032;-21
2022/02/24 09:21:43;;;;;;;4.85;3.83;;;;;;;4.29;73.34;100622.63;5044296;28;20521;-20
2022/02/24 09:24:09;;;;;;;6.88;3.95;;;;;;;4.31;73.22;100621.81;5035835;28;20021;-20
2022/02/24 09:26:35;;;;;;;4.22;3.75;;;;;;;4.35;73.25;100618.41;5032537;28;20048;-20
2022/02/24 09:29:01;;;;;;;5.57;3.60;;;;;;;4.39;73.32;100605.34;5036256;28;20042;-20
2022/02/24 09:31:27;;;;;;;4.65;3.60;;;;;;;4.43;72.74;100600.22;5034086;28;20280;-20
2022/02/24 09:33:52;;;;;;;5.65;3.70;;;;;;;4.47;73.24;100591.56;5038049;28;20457;-20
2022/02/24 09:36:17;;;;;;;4.90;3.88;;;;;;;4.52;73.30;100590.75;5034079;28;20029;-20
2022/02/24 09:38:43;;;;;;;5.45;3.83;;;;;;;4.56;73.16;100579.47;5041943;28;20495;-20
2022/02/24 09:41:10;;;;;;;5.97;3.63;;;;;;;4.58;73.24;100572.56;5041552;28;20027;-20
2022/02/24 09:43:36;;;;;;;8.60;4.50;;;;;;;4.63;73.14;100560.44;5034938;28;20072;-20
2022/02/24 09:46:07;;;;;;;6.15;3.58;;;;;;;4.68;72.94;100565.72;5031257;28;20032;-19
2022/02/24 09:48:36;;;;;;;7.18;4.38;;;;;;;4.75;73.45;100570.19;5043568;28;20115;-20
2022/02/24 09:51:03;;;;;;;4.43;3.90;;;;;;;4.78;72.95;100558.88;5040375;28;20038;-20
2022/02/24 09:53:32;;;;;;;4.57;3.50;;;;;;;4.84;73.55;100553.75;5037285;28;20116;-20
2022/02/24 09:55:58;;;;;;;6.80;4.15;;;;;;;4.89;73.40;100557.28;5033850;28;20029;-22
2022/02/24 09:58:25;;;;;;;6.63;4.43;;;;;;;4.93;73.22;100553.84;5035669;28;20475;-20
2022/02/24 10:00:50;;;;;;;6.15;3.88;;;;;;;4.97;73.36;100545.19;5032313;28;20037;-20
2022/02/24 10:03:36;;;;;;;7.88;4.10;;;;;;;5.04;73.47;100546.16;5035505;28;20018;-21
2022/02/24 10:06:02;;;;;;;4.80;4.22;;;;;;;5.10;72.95;100540.97;5036157;28;20021;-20
2022/02/24 10:08:34;;;;;;;6.05;4.20;;;;;;;5.16;73.21;100540.16;5036453;28;20031;-20
2022/02/24 10:11:01;;;;;;;5.78;4.38;;;;;;;5.19;73.40;100527.13;5032984;28;20659;-19
2022/02/24 10:13:27;;;;;;;8.20;4.43;;;;;;;5.26;73.38;100525.44;5040832;28;20017;-19
2022/02/24 10:16:01;;;;;;;5.45;4.95;;;;;;;5.31;73.08;100515.06;5039770;28;20457;-19
2022/02/24 10:18:30;;;;;;;7.35;4.45;;;;;;;5.35;72.95;100514.22;5043099;28;20021;-20
2022/02/24 10:21:00;;;;;;;9.55;4.40;;;;;;;5.40;72.87;100512.50;5042853;28;20098;-20
2022/02/24 10:23:38;;;;;;;6.72;4.43;;;;;;;5.44;72.79;100488.13;5044233;28;20352;-19
2022/02/24 10:26:09;;;;;;;6.28;4.72;;;;;;;5.50;72.77;100496.06;5046805;28;20025;-20
2022/02/24 10:28:49;;;;;;;9.13;4.90;;;;;;;5.56;72.71;100489.09;5047644;28;20060;-21
2022/02/24 10:31:16;;;;;;;7.38;4.25;;;;;;;5.61;73.03;100469.09;5043720;28;20493;-20
2022/02/24 10:33:44;;;;;;;6.43;4.28;;;;;;;5.66;73.08;100485.72;5035844;28;20486;-20
2022/02/24 10:36:15;;;;;;;7.07;3.97;;;;;;;5.71;72.99;100476.19;5040417;28;20136;-22
2022/02/24 10:38:42;;;;;;;7.95;4.45;;;;;;;5.76;73.31;100468.34;5035625;28;20052;-20
2022/02/24 10:41:08;;;;;;;5.10;4.43;;;;;;;5.83;72.66;100469.28;5037715;28;20432;-20
2022/02/24 10:43:36;;;;;;;8.52;5.35;;;;;;;5.87;72.94;100460.59;5037053;28;20047;-20
2022/02/24 10:46:06;;;;;;;7.97;4.60;;;;;;;5.93;72.81;100465.84;5038457;28;20372;-21
2022/02/24 10:48:50;;;;;;;9.65;5.38;;;;;;;5.97;72.50;100456.28;5034766;28;20395;-21
2022/02/24 10:51:21;;;;;;;8.50;4.43;;;;;;;6.04;72.06;100455.50;5037571;28;20077;-20
2022/02/24 10:53:57;;;;;;;6.90;4.95;;;;;;;6.10;71.99;100446.81;5035258;28;20028;-20
2022/02/24 10:56:24;;;;;;;6.50;5.25;;;;;;;6.14;72.30;100452.03;5017657;28;20060;-20
2022/02/24 10:58:49;;;;;;;8.25;4.32;;;;;;;6.19;72.17;100445.94;5035338;28;20033;-20
2022/02/24 11:01:22;;;;;;;7.15;4.85;;;;;;;6.24;72.59;100439.88;5034580;28;20368;-20
2022/02/24 11:03:50;;;;;;;6.38;4.40;;;;;;;6.28;72.38;100436.41;5036973;28;20151;-20
2022/02/24 11:06:16;;;;;;;7.32;4.28;;;;;;;6.34;71.92;100434.69;5036145;28;20036;-20
2022/02/24 11:08:43;;;;;;;7.78;4.72;;;;;;;6.38;71.95;100420.72;5032513;28;20018;-20
2022/02/24 11:11:09;;;;;;;8.15;4.75;;;;;;;6.41;72.00;100420.75;5032262;28;20037;-20
2022/02/24 11:13:35;;;;;;;5.35;3.95;;;;;;;6.48;72.19;100419.91;5035362;28;20437;-20
2022/02/24 11:16:02;;;;;;;6.45;4.10;;;;;;;6.53;72.23;100420.78;5033673;28;20033;-22
2022/02/24 11:18:29;;;;;;;5.22;4.60;;;;;;;6.61;72.09;100412.09;5037051;28;20391;-20
2022/02/24 11:20:56;;;;;;;5.95;4.28;;;;;;;6.66;72.27;100402.47;5039916;28;20064;-20
2022/02/24 11:23:22;;;;;;;6.05;4.15;;;;;;;6.72;72.64;100394.66;5034275;28;20360;-20
2022/02/24 11:26:03;;;;;;;6.80;4.47;;;;;;;6.80;72.52;100392.03;5035077;28;20081;-20
2022/02/24 11:29:16;;;;;;;7.10;4.40;;;;;;;6.90;72.65;100388.56;5038160;28;20040;-21